Sign-in with your pilot id or email, or register

ICAO: LIMC Name / Country: Malpensa / Italy
Latitude: 45.6306 Longitude: 8.72811
Total Arrivals:
Strict Standards: Non-static method AirportData::getarrflights() should not be called statically, assuming $this from incompatible context in /var/www/customers/vh-7192/web/home/phpvms/core/templates/airport_info.tpl on line 18
1
Total Departures:
Strict Standards: Non-static method AirportData::getdeptflights() should not be called statically, assuming $this from incompatible context in /var/www/customers/vh-7192/web/home/phpvms/core/templates/airport_info.tpl on line 21
2
Latest Arrival: MTA410 (LHBP-LIMC) Tibor Berces Latest Departure: MTA11P (LIMC-LHBP) Tibor Berces
Metar: LIMC 172220Z 20004KT CAVOK 21/17 Q1014 NOSIG
More info

Charts for LIMC


NOTAM


Warning: file_get_contents(http://api.vateud.net/notams/LIMC.json): failed to open stream: Redirection limit reached, aborting in /var/www/customers/vh-7192/web/home/phpvms/core/common/NOTAMSData.class.php on line 18

Warning: Invalid argument supplied for foreach() in /var/www/customers/vh-7192/web/home/phpvms/core/common/NOTAMSData.class.php on line 22

Malpensa